createdAt,value
2023-02-19T05:00:30.472Z,3.15
2023-02-19T05:01:31.504Z,3.13
2023-02-19T05:02:31.489Z,3.15
2023-02-19T05:03:31.452Z,3.18
2023-02-19T05:04:31.528Z,3.18
2023-02-19T05:05:31.429Z,3.16
2023-02-19T05:06:31.440Z,3.09
2023-02-19T05:07:31.402Z,3.09
2023-02-19T05:08:31.399Z,3.00
2023-02-19T05:09:31.379Z,3.00
2023-02-19T05:10:31.382Z,3.00
2023-02-19T05:11:31.375Z,3.02
2023-02-19T05:12:31.361Z,2.98
2023-02-19T05:13:31.357Z,3.02
2023-02-19T05:14:31.329Z,3.00
2023-02-19T05:15:31.329Z,3.00
2023-02-19T05:16:31.336Z,2.95
2023-02-19T05:17:31.295Z,2.98
2023-02-19T05:18:31.314Z,3.02
2023-02-19T05:19:31.313Z,2.97
2023-02-19T05:20:31.284Z,2.94
2023-02-19T05:21:31.263Z,2.95
2023-02-19T05:22:31.270Z,3.00
2023-02-19T05:23:31.235Z,2.94
2023-02-19T05:24:31.222Z,2.95
2023-02-19T05:25:31.248Z,2.95
2023-02-19T05:26:31.236Z,2.91
2023-02-19T05:27:31.183Z,2.85
2023-02-19T05:28:31.205Z,2.89
2023-02-19T05:29:31.208Z,2.84
2023-02-19T05:30:31.174Z,2.85
2023-02-19T05:31:31.346Z,2.84
2023-02-19T05:32:31.135Z,2.87
2023-02-19T05:33:31.125Z,2.85
2023-02-19T05:34:31.119Z,2.89
2023-02-19T05:35:31.120Z,2.95
2023-02-19T05:36:31.098Z,2.94
2023-02-19T05:37:31.118Z,2.91
2023-02-19T05:38:31.083Z,2.92
2023-02-19T05:39:31.060Z,2.89
2023-02-19T05:40:31.065Z,2.88
2023-02-19T05:41:31.087Z,2.87
2023-02-19T05:42:31.058Z,2.91
2023-02-19T05:43:31.023Z,2.89
2023-02-19T05:44:31.020Z,2.84
2023-02-19T05:45:30.994Z,2.87
2023-02-19T05:46:31.528Z,2.84
2023-02-19T05:47:30.947Z,2.82
2023-02-19T05:48:30.976Z,2.84
2023-02-19T05:49:30.912Z,2.87
2023-02-19T05:50:30.916Z,2.84
2023-02-19T05:51:30.918Z,2.85
2023-02-19T05:52:30.871Z,2.87
2023-02-19T05:53:30.888Z,2.85
2023-02-19T05:54:30.841Z,2.84
2023-02-19T05:55:30.856Z,2.79
2023-02-19T05:56:30.857Z,2.85
2023-02-19T05:57:30.812Z,2.87
2023-02-19T05:58:30.823Z,2.89
2023-02-19T05:59:30.808Z,2.88
2023-02-19T06:00:30.797Z,2.87
2023-02-19T06:01:30.789Z,2.89
2023-02-19T06:02:30.771Z,2.92
2023-02-19T06:03:30.766Z,2.91
2023-02-19T06:04:30.750Z,2.88
2023-02-19T06:05:30.736Z,2.89
2023-02-19T06:06:30.738Z,2.87
2023-02-19T06:07:30.736Z,2.87
2023-02-19T06:08:30.717Z,2.88
2023-02-19T06:09:30.687Z,2.89
2023-02-19T06:10:30.696Z,2.85
2023-02-19T06:11:30.680Z,2.87
2023-02-19T06:12:30.661Z,2.89
2023-02-19T06:13:30.646Z,2.85
2023-02-19T06:14:30.681Z,2.85
2023-02-19T06:15:30.640Z,2.87
2023-02-19T06:16:30.625Z,2.91
2023-02-19T06:17:30.599Z,2.92
2023-02-19T06:18:30.622Z,2.94
2023-02-19T06:19:30.598Z,2.94
2023-02-19T06:20:30.588Z,2.89
2023-02-19T06:21:30.580Z,2.91
2023-02-19T06:22:30.554Z,2.92
2023-02-19T06:23:30.536Z,2.92
2023-02-19T06:24:30.605Z,2.91
2023-02-19T06:25:30.517Z,2.88
2023-02-19T06:26:30.562Z,2.81
2023-02-19T06:27:30.506Z,2.79
2023-02-19T06:28:30.506Z,2.84
2023-02-19T06:29:30.490Z,2.81
2023-02-19T06:30:30.514Z,2.79
2023-02-19T06:31:30.570Z,2.79
2023-02-19T06:32:30.504Z,2.76
2023-02-19T06:33:30.440Z,2.77
2023-02-19T06:34:30.446Z,2.82
2023-02-19T06:35:30.421Z,2.82
2023-02-19T06:36:30.454Z,2.84
2023-02-19T06:37:30.399Z,2.82
2023-02-19T06:38:30.383Z,2.82
2023-02-19T06:39:30.372Z,2.81
2023-02-19T06:40:30.361Z,2.87
2023-02-19T06:41:30.372Z,2.88
2023-02-19T06:42:30.340Z,2.84
2023-02-19T06:43:30.328Z,2.85
2023-02-19T06:44:30.330Z,2.87
2023-02-19T06:45:30.309Z,2.85
2023-02-19T06:46:30.371Z,2.82
2023-02-19T06:47:30.295Z,2.87
2023-02-19T06:48:30.288Z,2.85
2023-02-19T06:49:30.265Z,2.88
2023-02-19T06:50:30.263Z,2.92
2023-02-19T06:51:30.269Z,2.97
2023-02-19T06:52:30.236Z,2.94
2023-02-19T06:53:30.240Z,2.91
2023-02-19T06:54:30.227Z,2.94
2023-02-19T06:55:30.224Z,2.88
2023-02-19T06:56:30.204Z,2.89
2023-02-19T06:57:30.209Z,2.89
2023-02-19T06:58:30.195Z,2.91
2023-02-19T06:59:30.176Z,2.92
2023-02-19T07:00:30.236Z,2.98
2023-02-19T07:01:30.141Z,2.98
2023-02-19T07:02:30.148Z,2.89
2023-02-19T07:03:30.137Z,2.88
2023-02-19T07:04:30.194Z,2.95
2023-02-19T07:05:30.113Z,2.94
2023-02-19T07:06:30.090Z,2.91
2023-02-19T07:07:30.126Z,2.91
2023-02-19T07:08:30.073Z,2.97
2023-02-19T07:09:30.131Z,2.97
2023-02-19T07:10:30.124Z,3.00
2023-02-19T07:11:30.128Z,3.06
2023-02-19T07:12:30.057Z,3.03
2023-02-19T07:13:30.026Z,3.06
2023-02-19T07:14:29.990Z,3.05
2023-02-19T07:15:29.994Z,3.03
2023-02-19T07:16:30.162Z,3.02
2023-02-19T07:17:30.133Z,3.05
2023-02-19T07:18:29.963Z,3.06
2023-02-19T07:19:29.944Z,3.03
2023-02-19T07:20:29.947Z,3.06
2023-02-19T07:21:29.925Z,3.07
2023-02-19T07:22:29.958Z,3.05
2023-02-19T07:23:29.921Z,3.05
2023-02-19T07:24:29.885Z,3.07
2023-02-19T07:25:29.899Z,3.12
2023-02-19T07:26:29.872Z,3.13
2023-02-19T07:27:29.884Z,3.16
2023-02-19T07:28:29.868Z,3.21
2023-02-19T07:29:29.866Z,3.23
2023-02-19T07:30:29.902Z,3.27
2023-02-19T07:31:30.012Z,3.27
2023-02-19T07:32:29.860Z,3.25
2023-02-19T07:33:29.843Z,3.23
2023-02-19T07:34:29.802Z,3.18
2023-02-19T07:35:29.824Z,3.20
2023-02-19T07:36:29.774Z,3.23
2023-02-19T07:37:29.775Z,3.18
2023-02-19T07:38:29.763Z,3.18
2023-02-19T07:39:29.777Z,3.15
2023-02-19T07:40:29.747Z,3.16
2023-02-19T07:41:29.738Z,3.24
2023-02-19T07:42:29.752Z,3.18
2023-02-19T07:43:29.699Z,3.15
2023-02-19T07:44:29.704Z,3.16
2023-02-19T07:45:29.713Z,3.21
2023-02-19T07:46:29.683Z,3.21
2023-02-19T07:47:29.703Z,3.24
2023-02-19T07:48:29.641Z,3.27
2023-02-19T07:49:29.722Z,3.30
2023-02-19T07:50:29.615Z,3.36
2023-02-19T07:51:29.627Z,3.39
2023-02-19T07:52:29.694Z,3.46
2023-02-19T07:53:29.621Z,3.44
2023-02-19T07:54:29.617Z,3.44
2023-02-19T07:55:29.589Z,3.46
2023-02-19T07:56:29.674Z,3.54
2023-02-19T07:57:29.607Z,3.58
2023-02-19T07:58:29.557Z,3.61
2023-02-19T07:59:29.541Z,3.67
2023-02-19T08:00:29.523Z,3.79
2023-02-19T08:01:29.587Z,3.89
2023-02-19T08:02:29.524Z,4.04
2023-02-19T08:03:29.547Z,4.07
2023-02-19T08:04:29.510Z,4.16
2023-02-19T08:05:29.493Z,4.21
2023-02-19T08:06:29.514Z,4.32
2023-02-19T08:07:29.500Z,4.37
2023-02-19T08:08:29.445Z,4.32
2023-02-19T08:09:29.530Z,4.32
2023-02-19T08:10:29.488Z,4.22
2023-02-19T08:11:29.420Z,4.29
2023-02-19T08:12:29.443Z,4.44
2023-02-19T08:13:29.483Z,4.59
2023-02-19T08:14:29.398Z,4.70
2023-02-19T08:15:29.388Z,4.62
2023-02-19T08:16:42.608Z,4.50
2023-02-19T08:17:29.382Z,4.51
2023-02-19T08:18:29.443Z,4.40
2023-02-19T08:19:29.381Z,4.34
2023-02-19T08:20:29.548Z,4.39
2023-02-19T08:21:29.534Z,4.46
2023-02-19T08:22:29.285Z,4.55
2023-02-19T08:23:29.276Z,4.65
2023-02-19T08:24:29.266Z,4.73
2023-02-19T08:25:29.268Z,4.77
2023-02-19T08:26:29.456Z,4.77
2023-02-19T08:27:29.259Z,4.92
2023-02-19T08:28:29.793Z,4.91
2023-02-19T08:29:29.231Z,4.89
2023-02-19T08:30:29.445Z,4.98
2023-02-19T08:31:29.340Z,4.98
2023-02-19T08:32:29.198Z,5.04
2023-02-19T08:33:29.376Z,4.83
2023-02-19T08:34:29.167Z,4.95
2023-02-19T08:35:29.163Z,4.96
2023-02-19T08:36:29.129Z,5.14
2023-02-19T08:37:29.152Z,5.37
2023-02-19T08:38:29.156Z,5.16
2023-02-19T08:39:29.118Z,4.89
2023-02-19T08:40:29.086Z,4.96
2023-02-19T08:41:29.140Z,5.28
2023-02-19T08:42:29.158Z,5.13
2023-02-19T08:43:29.100Z,4.83
2023-02-19T08:44:29.089Z,4.83
2023-02-19T08:45:29.027Z,5.23
2023-02-19T08:46:29.022Z,5.12
2023-02-19T08:47:29.116Z,4.89
2023-02-19T08:48:29.123Z,4.94
2023-02-19T08:49:29.018Z,5.37
2023-02-19T08:50:29.039Z,5.95
2023-02-19T08:51:29.020Z,5.78
2023-02-19T08:52:28.948Z,5.09
2023-02-19T08:53:29.023Z,4.72
2023-02-19T08:54:28.971Z,4.67
2023-02-19T08:55:29.002Z,4.57
2023-02-19T08:56:28.915Z,4.67
2023-02-19T08:57:28.935Z,4.77
2023-02-19T08:58:28.973Z,4.69
2023-02-19T08:59:28.904Z,4.73
2023-02-19T09:00:28.869Z,4.96
2023-02-19T09:01:28.899Z,5.09
2023-02-19T09:02:28.857Z,4.98
2023-02-19T09:03:28.836Z,5.20
2023-02-19T09:04:28.893Z,5.45
2023-02-19T09:05:28.812Z,5.67
2023-02-19T09:06:28.858Z,5.48
2023-02-19T09:07:28.800Z,6.00
2023-02-19T09:08:28.821Z,6.41
2023-02-19T09:09:28.787Z,6.56
2023-02-19T09:10:28.811Z,6.01
2023-02-19T09:11:28.821Z,6.62
2023-02-19T09:12:28.836Z,6.44
2023-02-19T09:13:28.770Z,6.72
2023-02-19T09:14:28.716Z,6.22
2023-02-19T09:15:28.750Z,5.81
2023-02-19T09:16:28.686Z,5.63
2023-02-19T09:17:28.678Z,5.43
2023-02-19T09:18:28.723Z,5.35
2023-02-19T09:19:28.668Z,5.27
2023-02-19T09:20:28.654Z,5.20
2023-02-19T09:21:28.668Z,5.05
2023-02-19T09:22:28.648Z,5.12
2023-02-19T09:23:28.677Z,5.12
2023-02-19T09:24:28.684Z,5.05
2023-02-19T09:25:28.624Z,4.96
2023-02-19T09:26:28.586Z,4.89
2023-02-19T09:27:28.584Z,5.38
2023-02-19T09:28:28.581Z,5.28
2023-02-19T09:29:28.601Z,5.46
2023-02-19T09:30:28.597Z,5.64
2023-02-19T09:31:28.668Z,5.60
2023-02-19T09:32:28.534Z,5.81
2023-02-19T09:33:28.521Z,5.64
2023-02-19T09:34:28.517Z,5.48
2023-02-19T09:35:28.492Z,5.68
2023-02-19T09:36:28.480Z,5.75
2023-02-19T09:37:28.469Z,5.91
2023-02-19T09:38:28.477Z,5.83
2023-02-19T09:39:28.484Z,6.04
2023-02-19T09:40:28.426Z,5.75
2023-02-19T09:41:28.427Z,5.73
2023-02-19T09:42:28.425Z,5.71
2023-02-19T09:43:28.438Z,5.60
2023-02-19T09:44:28.418Z,5.60
2023-02-19T09:45:28.391Z,5.71
2023-02-19T09:46:28.436Z,5.67
2023-02-19T09:47:28.396Z,5.57
2023-02-19T09:48:28.406Z,5.57
2023-02-19T09:49:28.451Z,5.74
2023-02-19T09:50:28.384Z,5.85
2023-02-19T09:51:28.352Z,5.82
2023-02-19T09:52:28.313Z,5.78
2023-02-19T09:53:28.316Z,5.82
2023-02-19T09:54:28.317Z,5.88
2023-02-19T09:55:28.331Z,5.70
2023-02-19T09:56:28.288Z,5.68
2023-02-19T09:57:28.255Z,5.64
2023-02-19T09:58:28.266Z,5.83
2023-02-19T09:59:28.285Z,6.14
2023-02-19T10:00:28.241Z,5.88
2023-02-19T10:01:28.254Z,5.57
2023-02-19T10:02:28.201Z,5.92
2023-02-19T10:03:28.232Z,5.77
2023-02-19T10:04:28.219Z,6.29
2023-02-19T10:05:28.266Z,6.50
2023-02-19T10:06:28.197Z,6.28
2023-02-19T10:07:28.181Z,6.28
2023-02-19T10:08:28.152Z,6.07
2023-02-19T10:09:28.161Z,6.04
2023-02-19T10:10:28.149Z,7.19
2023-02-19T10:11:28.122Z,8.36
2023-02-19T10:12:28.107Z,8.94
2023-02-19T10:13:28.079Z,9.27
2023-02-19T10:14:28.116Z,9.53
2023-02-19T10:15:28.081Z,9.89
2023-02-19T10:16:28.076Z,9.43
2023-02-19T10:17:28.071Z,8.86
2023-02-19T10:18:28.072Z,8.81
2023-02-19T10:19:28.041Z,7.94
2023-02-19T10:20:28.047Z,7.23
2023-02-19T10:21:28.022Z,6.95
2023-02-19T10:22:28.000Z,6.91
2023-02-19T10:23:27.999Z,7.17
2023-02-19T10:24:27.968Z,6.56
2023-02-19T10:25:27.978Z,6.25
2023-02-19T10:26:27.986Z,6.01
2023-02-19T10:27:27.940Z,5.86
2023-02-19T10:28:27.939Z,5.88
2023-02-19T10:29:27.936Z,6.30
2023-02-19T10:30:27.942Z,6.95
2023-02-19T10:31:28.035Z,6.59
2023-02-19T10:32:27.876Z,6.41
2023-02-19T10:33:27.913Z,6.25
2023-02-19T10:34:27.941Z,6.11
2023-02-19T10:35:27.868Z,7.29
2023-02-19T10:36:29.847Z,7.29
2023-02-19T10:37:27.811Z,6.98
2023-02-19T10:38:27.808Z,7.01
2023-02-19T10:39:27.845Z,6.61
2023-02-19T10:40:27.821Z,7.02
2023-02-19T10:41:27.781Z,7.60
2023-02-19T10:42:27.766Z,7.23
2023-02-19T10:43:27.767Z,6.89
2023-02-19T10:44:27.752Z,6.72
2023-02-19T10:45:27.751Z,6.66
2023-02-19T10:46:27.761Z,6.41
2023-02-19T10:47:27.738Z,6.50
2023-02-19T10:48:27.704Z,7.53
2023-02-19T10:49:27.760Z,8.28
2023-02-19T10:50:27.715Z,9.15
2023-02-19T10:51:27.772Z,9.20
2023-02-19T10:52:27.674Z,8.62
2023-02-19T10:53:27.659Z,9.02
2023-02-19T10:54:27.670Z,8.81
2023-02-19T10:55:27.645Z,9.15
2023-02-19T10:56:27.620Z,9.73
2023-02-19T10:57:27.616Z,10.58
2023-02-19T10:58:27.611Z,9.64
2023-02-19T10:59:27.643Z,8.18
2023-02-19T11:00:27.627Z,8.78
2023-02-19T11:01:27.608Z,9.12
2023-02-19T11:02:27.559Z,8.88
2023-02-19T11:03:27.553Z,9.01
2023-02-19T11:04:27.594Z,8.51
2023-02-19T11:05:27.532Z,7.84
2023-02-19T11:06:27.507Z,7.49
2023-02-19T11:07:27.490Z,7.59
2023-02-19T11:08:27.498Z,7.92
2023-02-19T11:09:27.508Z,9.25
2023-02-19T11:10:27.512Z,8.78
2023-02-19T11:11:27.457Z,9.02
2023-02-19T11:12:27.424Z,9.25
2023-02-19T11:13:27.427Z,9.48
2023-02-19T11:14:27.584Z,9.66
2023-02-19T11:15:27.436Z,9.68
2023-02-19T11:16:27.493Z,8.51
2023-02-19T11:17:27.436Z,8.28
2023-02-19T11:18:27.384Z,7.87
2023-02-19T11:19:27.360Z,7.62
2023-02-19T11:20:27.366Z,8.08
2023-02-19T11:21:27.382Z,7.67
2023-02-19T11:22:27.372Z,7.32
2023-02-19T11:23:27.329Z,7.09
2023-02-19T11:24:27.351Z,7.04
2023-02-19T11:25:27.305Z,6.98
2023-02-19T11:26:27.334Z,7.87
2023-02-19T11:27:27.290Z,7.90
2023-02-19T11:28:27.278Z,7.75
2023-02-19T11:29:27.243Z,7.89
2023-02-19T11:30:27.293Z,7.55
2023-02-19T11:31:27.405Z,7.56
2023-02-19T11:32:27.352Z,7.09
2023-02-19T11:33:27.341Z,6.81
2023-02-19T11:34:27.197Z,6.80
2023-02-19T11:35:27.206Z,7.04
2023-02-19T11:36:29.472Z,8.53
2023-02-19T11:37:27.164Z,8.58
2023-02-19T11:38:27.151Z,8.14
2023-02-19T11:39:27.157Z,8.53
2023-02-19T11:40:27.136Z,8.14
2023-02-19T11:41:27.174Z,7.77
2023-02-19T11:42:29.268Z,7.34
2023-02-19T11:43:27.120Z,7.47
2023-02-19T11:44:27.098Z,8.29
2023-02-19T11:45:27.100Z,8.97
2023-02-19T11:46:27.114Z,8.54
2023-02-19T11:47:27.071Z,8.51
2023-02-19T11:48:28.623Z,8.48
2023-02-19T11:49:27.057Z,8.12
2023-02-19T11:50:27.038Z,7.63
2023-02-19T11:51:27.015Z,7.29
2023-02-19T11:52:27.044Z,7.29
2023-02-19T11:53:27.035Z,7.09
2023-02-19T11:54:27.010Z,7.15
2023-02-19T11:55:27.005Z,7.49
2023-02-19T11:56:26.958Z,8.10
2023-02-19T11:57:26.969Z,8.48
2023-02-19T11:58:26.969Z,8.93
2023-02-19T11:59:27.585Z,9.16
2023-02-19T12:00:26.969Z,8.99
2023-02-19T12:01:26.904Z,9.27
2023-02-19T12:02:26.929Z,8.78
2023-02-19T12:03:26.944Z,8.91
2023-02-19T12:04:26.891Z,9.05
2023-02-19T12:05:26.945Z,8.69
2023-02-19T12:06:26.888Z,9.02
2023-02-19T12:07:26.836Z,9.56
2023-02-19T12:08:26.870Z,9.34
2023-02-19T12:09:26.805Z,10.01
2023-02-19T12:10:26.814Z,9.15
2023-02-19T12:11:26.839Z,8.48
2023-02-19T12:12:26.794Z,8.26
2023-02-19T12:13:26.802Z,7.97
2023-02-19T12:14:26.766Z,7.72
2023-02-19T12:15:26.749Z,7.53
2023-02-19T12:16:26.800Z,7.59
2023-02-19T12:17:26.761Z,7.69
2023-02-19T12:18:26.726Z,8.02
2023-02-19T12:19:26.732Z,8.28
2023-02-19T12:20:26.717Z,8.62
2023-02-19T12:21:26.689Z,8.29
2023-02-19T12:22:26.689Z,8.39
2023-02-19T12:23:26.691Z,9.10
2023-02-19T12:24:26.656Z,9.27
2023-02-19T12:25:26.645Z,9.38
2023-02-19T12:26:26.626Z,9.71
2023-02-19T12:27:26.609Z,10.24
2023-02-19T12:28:26.609Z,9.89
2023-02-19T12:29:26.607Z,9.83
2023-02-19T12:30:26.679Z,9.70
2023-02-19T12:31:26.604Z,10.06
2023-02-19T12:32:26.566Z,10.40
2023-02-19T12:33:26.543Z,10.66
2023-02-19T12:34:26.562Z,10.28
2023-02-19T12:35:26.559Z,10.51
2023-02-19T12:36:26.532Z,10.40
2023-02-19T12:37:26.521Z,10.15
2023-02-19T12:38:26.488Z,9.89
2023-02-19T12:39:26.475Z,9.81
2023-02-19T12:40:26.489Z,10.24
2023-02-19T12:41:26.477Z,10.77
2023-02-19T12:42:26.448Z,10.81
2023-02-19T12:43:26.425Z,10.39
2023-02-19T12:44:26.430Z,10.56
2023-02-19T12:45:26.413Z,10.92
2023-02-19T12:46:26.474Z,11.01
2023-02-19T12:47:26.405Z,10.81
2023-02-19T12:48:26.391Z,11.39
2023-02-19T12:49:26.367Z,11.35
2023-02-19T12:50:26.392Z,10.17
2023-02-19T12:51:26.356Z,9.67
2023-02-19T12:52:26.351Z,9.45
2023-02-19T12:53:27.107Z,9.04
2023-02-19T12:54:26.320Z,8.44
2023-02-19T12:55:26.335Z,8.21
2023-02-19T12:56:26.309Z,9.09
2023-02-19T12:57:26.295Z,9.13
2023-02-19T12:58:26.303Z,8.57
2023-02-19T12:59:26.266Z,8.18
2023-02-19T13:00:26.276Z,7.94
2023-02-19T13:01:26.328Z,7.87
2023-02-19T13:02:26.240Z,7.72
2023-02-19T13:03:26.229Z,7.45
2023-02-19T13:04:26.228Z,7.32
2023-02-19T13:05:26.217Z,7.07
2023-02-19T13:06:26.187Z,7.04
2023-02-19T13:07:26.182Z,6.90
2023-02-19T13:08:26.175Z,6.73
2023-02-19T13:09:26.162Z,6.69
2023-02-19T13:10:26.175Z,6.54
2023-02-19T13:11:26.138Z,6.41
2023-02-19T13:12:26.132Z,6.32
2023-02-19T13:13:26.118Z,6.28
2023-02-19T13:14:26.110Z,6.21
2023-02-19T13:15:26.124Z,6.26
2023-02-19T13:16:26.110Z,6.30
2023-02-19T13:17:26.069Z,6.38
2023-02-19T13:18:26.069Z,6.40
2023-02-19T13:19:26.066Z,6.59
2023-02-19T13:20:26.062Z,6.48
2023-02-19T13:21:26.054Z,7.27
2023-02-19T13:22:26.068Z,7.96
2023-02-19T13:23:26.016Z,8.81
2023-02-19T13:24:26.007Z,9.57
2023-02-19T13:25:25.984Z,9.73
2023-02-19T13:26:26.015Z,9.86
2023-02-19T13:27:25.984Z,9.81
2023-02-19T13:28:25.969Z,10.12
2023-02-19T13:29:25.972Z,10.40
2023-02-19T13:30:25.983Z,10.36
2023-02-19T13:31:26.000Z,10.43
2023-02-19T13:32:25.914Z,10.07
2023-02-19T13:33:25.894Z,9.67
2023-02-19T13:34:25.883Z,9.76
2023-02-19T13:35:25.885Z,10.04
2023-02-19T13:36:25.868Z,10.19
2023-02-19T13:37:25.877Z,10.25
2023-02-19T13:38:26.563Z,9.88
2023-02-19T13:39:27.045Z,9.61
2023-02-19T13:40:25.831Z,9.28
2023-02-19T13:41:25.799Z,8.99
2023-02-19T13:42:25.819Z,8.35
2023-02-19T13:43:25.791Z,7.89
2023-02-19T13:44:25.879Z,7.72
2023-02-19T13:45:25.771Z,7.53
2023-02-19T13:46:25.818Z,7.85
2023-02-19T13:47:25.752Z,7.56
2023-02-19T13:48:25.736Z,7.37
2023-02-19T13:49:25.729Z,7.17
2023-02-19T13:50:25.720Z,7.07
2023-02-19T13:51:25.707Z,7.35
2023-02-19T13:52:25.723Z,7.55
2023-02-19T13:53:25.692Z,7.53
2023-02-19T13:54:25.718Z,7.35
2023-02-19T13:55:25.657Z,7.27
2023-02-19T13:56:25.651Z,7.12
2023-02-19T13:57:25.631Z,7.01
2023-02-19T13:58:25.745Z,6.94
2023-02-19T13:59:25.617Z,6.86
2023-02-19T14:00:25.657Z,6.84
2023-02-19T14:01:25.621Z,6.79
2023-02-19T14:02:25.600Z,6.79
2023-02-19T14:03:25.615Z,6.76
2023-02-19T14:04:25.605Z,6.72
2023-02-19T14:05:25.542Z,6.73
2023-02-19T14:06:27.849Z,6.73
2023-02-19T14:07:25.526Z,6.79
2023-02-19T14:08:25.529Z,6.71
2023-02-19T14:09:25.578Z,6.72
2023-02-19T14:10:25.518Z,6.71
2023-02-19T14:11:25.523Z,6.76
2023-02-19T14:12:25.495Z,6.71
2023-02-19T14:13:25.504Z,6.72
2023-02-19T14:14:25.471Z,6.69
2023-02-19T14:15:25.518Z,6.69
2023-02-19T14:16:25.432Z,6.69
2023-02-19T14:17:25.436Z,6.71
2023-02-19T14:18:25.410Z,6.71
2023-02-19T14:19:25.419Z,6.71
2023-02-19T14:20:25.409Z,6.84
2023-02-19T14:21:25.384Z,6.97
2023-02-19T14:22:25.381Z,7.58
2023-02-19T14:23:25.352Z,7.45
2023-02-19T14:24:25.468Z,7.27
2023-02-19T14:25:25.354Z,7.13
2023-02-19T14:26:25.333Z,7.05
2023-02-19T14:27:25.343Z,6.98
2023-02-19T14:28:25.322Z,6.97
2023-02-19T14:29:25.306Z,6.97
2023-02-19T14:30:25.294Z,6.97
2023-02-19T14:31:25.394Z,6.89
2023-02-19T14:32:25.310Z,6.81
2023-02-19T14:33:25.242Z,6.79
2023-02-19T14:34:25.261Z,6.81
2023-02-19T14:35:25.282Z,6.76
2023-02-19T14:36:25.258Z,6.68
2023-02-19T14:37:25.256Z,6.65
2023-02-19T14:38:25.220Z,6.54
2023-02-19T14:39:25.171Z,6.56
2023-02-19T14:40:25.172Z,6.51
2023-02-19T14:41:25.191Z,6.44
2023-02-19T14:42:25.190Z,6.44
2023-02-19T14:43:25.165Z,6.43
2023-02-19T14:44:25.135Z,6.44
2023-02-19T14:45:25.111Z,6.47
2023-02-19T14:46:25.156Z,6.50
2023-02-19T14:47:25.108Z,6.47
2023-02-19T14:48:25.277Z,6.48
2023-02-19T14:49:25.221Z,6.46
2023-02-19T14:50:25.138Z,6.46
2023-02-19T14:51:25.091Z,6.41
2023-02-19T14:52:25.111Z,6.41
2023-02-19T14:53:25.065Z,6.40
2023-02-19T14:54:25.017Z,6.50
2023-02-19T14:55:25.015Z,6.58
2023-02-19T14:56:25.039Z,6.73
2023-02-19T14:57:25.000Z,6.84
2023-02-19T14:58:24.980Z,6.97
2023-02-19T14:59:24.989Z,7.05
2023-02-19T15:00:24.970Z,7.20
2023-02-19T15:01:25.029Z,7.42
2023-02-19T15:02:24.945Z,7.55
2023-02-19T15:03:24.930Z,7.52
2023-02-19T15:04:24.948Z,7.45
2023-02-19T15:05:24.935Z,7.42
2023-02-19T15:06:24.912Z,7.50
2023-02-19T15:07:24.877Z,7.56
2023-02-19T15:08:24.880Z,7.58
2023-02-19T15:09:24.855Z,7.44
2023-02-19T15:10:24.865Z,7.37
2023-02-19T15:11:24.984Z,7.37
2023-02-19T15:12:24.842Z,7.41
2023-02-19T15:13:24.843Z,7.53
2023-02-19T15:14:24.825Z,7.44
2023-02-19T15:15:24.815Z,7.45
2023-02-19T15:16:25.902Z,7.42
2023-02-19T15:17:24.782Z,7.49
2023-02-19T15:18:24.776Z,7.49
2023-02-19T15:19:24.788Z,7.50
2023-02-19T15:20:24.762Z,7.35
2023-02-19T15:21:24.757Z,7.27
2023-02-19T15:22:24.756Z,7.22
2023-02-19T15:23:24.700Z,7.09
2023-02-19T15:24:24.699Z,6.83
2023-02-19T15:25:24.684Z,6.73
2023-02-19T15:26:24.696Z,6.71
2023-02-19T15:27:24.671Z,6.77
2023-02-19T15:28:24.676Z,6.76
2023-02-19T15:29:24.641Z,6.76
2023-02-19T15:30:24.745Z,6.98
2023-02-19T15:31:24.741Z,6.99
2023-02-19T15:32:24.668Z,6.87
2023-02-19T15:33:24.600Z,6.97
2023-02-19T15:34:24.681Z,6.98
2023-02-19T15:35:24.614Z,6.81
2023-02-19T15:36:24.562Z,6.68
2023-02-19T15:37:24.581Z,6.61
2023-02-19T15:38:24.593Z,6.58
2023-02-19T15:39:24.553Z,6.48
2023-02-19T15:40:24.539Z,6.43
2023-02-19T15:41:24.527Z,6.33
2023-02-19T15:42:24.521Z,6.26
2023-02-19T15:43:24.491Z,6.26
2023-02-19T15:44:25.128Z,6.22
2023-02-19T15:45:24.501Z,6.19
2023-02-19T15:46:24.517Z,6.13
2023-02-19T15:47:24.491Z,6.13
2023-02-19T15:48:24.469Z,6.16
2023-02-19T15:49:24.446Z,6.13
2023-02-19T15:50:24.456Z,6.11
2023-02-19T15:51:24.421Z,6.10
2023-02-19T15:52:24.400Z,6.06
2023-02-19T15:53:24.439Z,6.03
2023-02-19T15:54:27.139Z,6.00
2023-02-19T15:55:24.379Z,5.98
2023-02-19T15:56:24.354Z,5.96
2023-02-19T15:57:24.358Z,5.98
2023-02-19T15:58:24.336Z,5.96
2023-02-19T15:59:24.318Z,5.93
2023-02-19T16:00:24.448Z,5.92
2023-02-19T16:01:24.483Z,5.91
2023-02-19T16:02:25.798Z,5.86
2023-02-19T16:03:24.323Z,5.88
2023-02-19T16:04:24.276Z,5.83
2023-02-19T16:05:24.306Z,5.78
2023-02-19T16:06:24.244Z,5.78
2023-02-19T16:07:24.258Z,5.81
2023-02-19T16:08:24.408Z,5.83
2023-02-19T16:09:24.238Z,5.77
2023-02-19T16:10:24.243Z,5.75
2023-02-19T16:11:24.243Z,5.74
2023-02-19T16:12:24.185Z,5.73
2023-02-19T16:13:24.208Z,5.73
2023-02-19T16:14:24.191Z,5.70
2023-02-19T16:15:24.184Z,5.68
2023-02-19T16:16:24.198Z,5.70
2023-02-19T16:17:24.210Z,5.68
2023-02-19T16:18:24.129Z,5.68
2023-02-19T16:19:24.124Z,5.67
2023-02-19T16:20:24.101Z,5.63
2023-02-19T16:21:24.090Z,5.67
2023-02-19T16:22:24.143Z,5.63
2023-02-19T16:23:24.156Z,5.60
2023-02-19T16:24:24.056Z,5.59
2023-02-19T16:25:24.064Z,5.56
2023-02-19T16:26:24.151Z,5.55
2023-02-19T16:27:24.031Z,5.53
2023-02-19T16:28:24.033Z,5.53
2023-02-19T16:29:24.050Z,5.52
2023-02-19T16:30:24.020Z,5.50
2023-02-19T16:31:24.104Z,5.49
2023-02-19T16:32:24.506Z,5.49
2023-02-19T16:33:23.982Z,5.46
2023-02-19T16:34:23.937Z,5.45
2023-02-19T16:35:23.941Z,5.45
2023-02-19T16:36:23.943Z,5.40
2023-02-19T16:37:23.928Z,5.40
2023-02-19T16:38:23.957Z,5.38
2023-02-19T16:39:23.916Z,5.37
2023-02-19T16:40:23.879Z,5.37
2023-02-19T16:41:23.950Z,5.34
2023-02-19T16:42:23.876Z,5.31
2023-02-19T16:43:23.871Z,5.27
2023-02-19T16:44:23.863Z,5.28
2023-02-19T16:45:25.928Z,5.25
2023-02-19T16:46:23.826Z,5.23
2023-02-19T16:47:23.846Z,5.23
2023-02-19T16:48:23.834Z,5.23
2023-02-19T16:49:23.791Z,5.23
2023-02-19T16:50:23.817Z,5.30
2023-02-19T16:51:23.784Z,5.22
2023-02-19T16:52:23.754Z,5.22
2023-02-19T16:53:23.778Z,5.20
2023-02-19T16:54:23.757Z,5.19
2023-02-19T16:55:23.749Z,5.22
2023-02-19T16:56:23.743Z,5.20
2023-02-19T16:57:23.718Z,5.16
2023-02-19T16:58:23.704Z,5.16
2023-02-19T16:59:23.690Z,5.12
2023-02-19T17:00:23.677Z,5.12
2023-02-19T17:01:23.728Z,5.12
2023-02-19T17:02:23.719Z,5.09
2023-02-19T17:03:23.742Z,5.07
2023-02-19T17:04:23.697Z,5.07
2023-02-19T17:05:23.700Z,5.05
2023-02-19T17:06:23.666Z,5.09
2023-02-19T17:07:23.623Z,5.10
2023-02-19T17:08:23.724Z,5.05
2023-02-19T17:09:23.641Z,5.07
2023-02-19T17:10:23.611Z,5.05
2023-02-19T17:11:23.564Z,5.02
2023-02-19T17:12:23.600Z,5.01
2023-02-19T17:13:23.611Z,4.96
2023-02-19T17:14:23.625Z,4.96
2023-02-19T17:15:23.579Z,4.94
2023-02-19T17:16:23.608Z,4.94
2023-02-19T17:17:23.576Z,4.89
2023-02-19T17:18:23.564Z,4.88
2023-02-19T17:19:23.540Z,4.88
2023-02-19T17:20:23.515Z,4.83
2023-02-19T17:21:23.518Z,4.80
2023-02-19T17:22:23.548Z,4.80
2023-02-19T17:23:24.541Z,4.76
2023-02-19T17:24:23.489Z,4.77
2023-02-19T17:25:23.471Z,4.73
2023-02-19T17:26:23.448Z,4.70
2023-02-19T17:27:23.456Z,4.73
2023-02-19T17:28:23.448Z,4.64
2023-02-19T17:29:23.429Z,4.65
2023-02-19T17:30:23.485Z,4.64
2023-02-19T17:31:23.478Z,4.62
2023-02-19T17:32:23.497Z,4.59
2023-02-19T17:33:23.397Z,4.61
2023-02-19T17:34:23.460Z,4.58
2023-02-19T17:35:23.384Z,4.58
2023-02-19T17:36:23.350Z,4.57
2023-02-19T17:37:23.354Z,4.55
2023-02-19T17:38:23.338Z,4.54
2023-02-19T17:39:23.324Z,4.54
2023-02-19T17:40:32.175Z,4.52
2023-02-19T17:41:23.304Z,4.50
2023-02-19T17:42:23.304Z,4.46
2023-02-19T17:43:25.376Z,4.46
2023-02-19T17:44:24.971Z,4.43
2023-02-19T17:45:23.249Z,4.44
2023-02-19T17:46:23.272Z,4.44
2023-02-19T17:47:23.252Z,4.42
2023-02-19T17:48:23.210Z,4.42
2023-02-19T17:49:23.226Z,4.37
2023-02-19T17:50:23.198Z,4.37
2023-02-19T17:51:23.196Z,4.34
2023-02-19T17:52:23.169Z,4.36
2023-02-19T17:53:23.165Z,4.39
2023-02-19T17:54:23.204Z,4.36
2023-02-19T17:55:23.155Z,4.36
2023-02-19T17:56:23.138Z,4.34
2023-02-19T17:57:23.134Z,4.33
2023-02-19T17:58:23.114Z,4.33
2023-02-19T17:59:23.169Z,4.33
2023-02-19T18:00:23.098Z,4.33
2023-02-19T18:01:23.163Z,4.28
2023-02-19T18:02:23.069Z,4.28
2023-02-19T18:03:23.056Z,4.29
2023-02-19T18:04:23.118Z,4.26
2023-02-19T18:05:23.048Z,4.25
2023-02-19T18:06:23.056Z,4.24
2023-02-19T18:07:23.022Z,4.25
2023-02-19T18:08:23.004Z,4.29
2023-02-19T18:09:23.042Z,4.28
2023-02-19T18:10:22.979Z,4.26
2023-02-19T18:11:22.990Z,4.29
2023-02-19T18:12:22.964Z,4.25
2023-02-19T18:13:22.958Z,4.25
2023-02-19T18:14:22.993Z,4.22
2023-02-19T18:15:22.934Z,4.24
2023-02-19T18:16:22.961Z,4.24
2023-02-19T18:17:22.931Z,4.19